sensor_id;sensor_type;location;lat;lon;timestamp;P1;durP1;ratioP1;P2;durP2;ratioP2
82950;SDS011;72737;53.332;6.514;2023-09-19T00:02:14;6.68;;;1.50;;
82950;SDS011;72737;53.332;6.514;2023-09-19T00:04:39;6.70;;;1.60;;
82950;SDS011;72737;53.332;6.514;2023-09-19T00:07:05;6.38;;;1.33;;
82950;SDS011;72737;53.332;6.514;2023-09-19T00:09:31;5.35;;;1.15;;
82950;SDS011;72737;53.332;6.514;2023-09-19T00:12:02;5.82;;;1.50;;
82950;SDS011;72737;53.332;6.514;2023-09-19T00:14:30;6.22;;;1.50;;
82950;SDS011;72737;53.332;6.514;2023-09-19T00:16:55;9.27;;;1.38;;
82950;SDS011;72737;53.332;6.514;2023-09-19T00:19:20;6.15;;;1.30;;
82950;SDS011;72737;53.332;6.514;2023-09-19T00:21:46;7.70;;;1.38;;
82950;SDS011;72737;53.332;6.514;2023-09-19T00:24:12;6.07;;;1.45;;
82950;SDS011;72737;53.332;6.514;2023-09-19T00:26:39;4.47;;;1.30;;
82950;SDS011;72737;53.332;6.514;2023-09-19T00:29:04;4.70;;;1.30;;
82950;SDS011;72737;53.332;6.514;2023-09-19T00:31:33;7.97;;;1.60;;
82950;SDS011;72737;53.332;6.514;2023-09-19T00:33:59;7.05;;;1.40;;
82950;SDS011;72737;53.332;6.514;2023-09-19T00:36:32;7.65;;;1.42;;
82950;SDS011;72737;53.332;6.514;2023-09-19T00:38:58;5.45;;;1.35;;
82950;SDS011;72737;53.332;6.514;2023-09-19T00:41:24;6.00;;;1.60;;
82950;SDS011;72737;53.332;6.514;2023-09-19T00:43:50;6.28;;;1.50;;
82950;SDS011;72737;53.332;6.514;2023-09-19T00:46:18;6.07;;;1.45;;
82950;SDS011;72737;53.332;6.514;2023-09-19T00:48:44;5.03;;;1.30;;
82950;SDS011;72737;53.332;6.514;2023-09-19T00:53:38;4.80;;;1.30;;
82950;SDS011;72737;53.332;6.514;2023-09-19T00:56:04;6.72;;;1.40;;
82950;SDS011;72737;53.332;6.514;2023-09-19T00:58:32;7.53;;;1.73;;
82950;SDS011;72737;53.332;6.514;2023-09-19T01:03:24;5.55;;;1.30;;
82950;SDS011;72737;53.332;6.514;2023-09-19T01:05:49;7.57;;;1.48;;
82950;SDS011;72737;53.332;6.514;2023-09-19T01:08:15;7.90;;;1.75;;
82950;SDS011;72737;53.332;6.514;2023-09-19T01:10:52;7.63;;;1.48;;
82950;SDS011;72737;53.332;6.514;2023-09-19T01:13:29;6.35;;;1.48;;
82950;SDS011;72737;53.332;6.514;2023-09-19T01:18:51;6.47;;;1.40;;
82950;SDS011;72737;53.332;6.514;2023-09-19T01:29:39;6.07;;;1.52;;
82950;SDS011;72737;53.332;6.514;2023-09-19T01:32:10;7.68;;;1.45;;
82950;SDS011;72737;53.332;6.514;2023-09-19T01:34:52;6.28;;;1.45;;
82950;SDS011;72737;53.332;6.514;2023-09-19T01:37:21;5.93;;;1.40;;
82950;SDS011;72737;53.332;6.514;2023-09-19T01:39:59;6.93;;;1.90;;
82950;SDS011;72737;53.332;6.514;2023-09-19T01:42:35;4.82;;;1.27;;
82950;SDS011;72737;53.332;6.514;2023-09-19T01:47:38;6.28;;;1.50;;
82950;SDS011;72737;53.332;6.514;2023-09-19T01:56:16;7.32;;;1.50;;
82950;SDS011;72737;53.332;6.514;2023-09-19T01:58:51;6.18;;;1.40;;
82950;SDS011;72737;53.332;6.514;2023-09-19T02:01:22;6.90;;;1.50;;
82950;SDS011;72737;53.332;6.514;2023-09-19T02:03:50;5.20;;;1.40;;
82950;SDS011;72737;53.332;6.514;2023-09-19T02:06:16;5.60;;;1.27;;
82950;SDS011;72737;53.332;6.514;2023-09-19T02:08:43;6.57;;;1.40;;
82950;SDS011;72737;53.332;6.514;2023-09-19T02:11:10;5.15;;;1.27;;
82950;SDS011;72737;53.332;6.514;2023-09-19T02:13:36;5.82;;;1.52;;
82950;SDS011;72737;53.332;6.514;2023-09-19T02:16:02;5.95;;;1.50;;
82950;SDS011;72737;53.332;6.514;2023-09-19T02:18:29;6.45;;;1.48;;
82950;SDS011;72737;53.332;6.514;2023-09-19T02:20:56;7.35;;;1.50;;
82950;SDS011;72737;53.332;6.514;2023-09-19T02:23:23;6.10;;;1.50;;
82950;SDS011;72737;53.332;6.514;2023-09-19T02:25:53;6.88;;;1.63;;
82950;SDS011;72737;53.332;6.514;2023-09-19T02:28:18;6.00;;;1.42;;
82950;SDS011;72737;53.332;6.514;2023-09-19T02:30:47;6.35;;;1.67;;
82950;SDS011;72737;53.332;6.514;2023-09-19T02:33:13;6.43;;;1.60;;
82950;SDS011;72737;53.332;6.514;2023-09-19T02:35:39;7.50;;;1.40;;
82950;SDS011;72737;53.332;6.514;2023-09-19T02:38:04;5.72;;;1.30;;
82950;SDS011;72737;53.332;6.514;2023-09-19T02:40:31;6.88;;;1.60;;
82950;SDS011;72737;53.332;6.514;2023-09-19T02:43:00;5.82;;;1.27;;
82950;SDS011;72737;53.332;6.514;2023-09-19T02:45:27;5.25;;;1.45;;
82950;SDS011;72737;53.332;6.514;2023-09-19T02:47:53;6.88;;;1.88;;
82950;SDS011;72737;53.332;6.514;2023-09-19T02:50:19;6.50;;;1.58;;
82950;SDS011;72737;53.332;6.514;2023-09-19T02:52:45;6.18;;;1.70;;
82950;SDS011;72737;53.332;6.514;2023-09-19T02:55:15;9.57;;;1.95;;
82950;SDS011;72737;53.332;6.514;2023-09-19T02:57:53;5.00;;;1.40;;
82950;SDS011;72737;53.332;6.514;2023-09-19T03:00:22;6.68;;;1.65;;
82950;SDS011;72737;53.332;6.514;2023-09-19T03:02:49;6.70;;;1.80;;
82950;SDS011;72737;53.332;6.514;2023-09-19T03:05:19;6.68;;;1.40;;
82950;SDS011;72737;53.332;6.514;2023-09-19T03:07:46;5.72;;;1.60;;
82950;SDS011;72737;53.332;6.514;2023-09-19T03:10:15;6.88;;;1.40;;
82950;SDS011;72737;53.332;6.514;2023-09-19T03:12:41;5.57;;;1.40;;
82950;SDS011;72737;53.332;6.514;2023-09-19T03:15:07;6.63;;;1.50;;
82950;SDS011;72737;53.332;6.514;2023-09-19T03:17:36;6.47;;;1.80;;
82950;SDS011;72737;53.332;6.514;2023-09-19T03:20:02;4.78;;;1.30;;
82950;SDS011;72737;53.332;6.514;2023-09-19T03:22:34;6.45;;;1.45;;
82950;SDS011;72737;53.332;6.514;2023-09-19T03:25:00;6.47;;;1.50;;
82950;SDS011;72737;53.332;6.514;2023-09-19T03:27:26;7.78;;;1.33;;
82950;SDS011;72737;53.332;6.514;2023-09-19T03:29:52;8.82;;;1.60;;
82950;SDS011;72737;53.332;6.514;2023-09-19T03:32:18;6.15;;;1.52;;
82950;SDS011;72737;53.332;6.514;2023-09-19T03:34:44;5.70;;;1.55;;
82950;SDS011;72737;53.332;6.514;2023-09-19T03:37:09;6.22;;;1.77;;
82950;SDS011;72737;53.332;6.514;2023-09-19T03:39:35;7.70;;;1.52;;
82950;SDS011;72737;53.332;6.514;2023-09-19T03:42:01;6.15;;;1.35;;
82950;SDS011;72737;53.332;6.514;2023-09-19T03:44:29;5.55;;;1.52;;
82950;SDS011;72737;53.332;6.514;2023-09-19T03:46:55;6.90;;;1.50;;
82950;SDS011;72737;53.332;6.514;2023-09-19T03:49:21;6.18;;;1.35;;
82950;SDS011;72737;53.332;6.514;2023-09-19T03:51:47;6.28;;;1.60;;
82950;SDS011;72737;53.332;6.514;2023-09-19T03:54:12;7.05;;;1.60;;
82950;SDS011;72737;53.332;6.514;2023-09-19T03:56:38;5.97;;;1.40;;
82950;SDS011;72737;53.332;6.514;2023-09-19T03:59:03;7.78;;;1.63;;
82950;SDS011;72737;53.332;6.514;2023-09-19T04:01:29;7.55;;;1.60;;
82950;SDS011;72737;53.332;6.514;2023-09-19T04:03:57;6.13;;;1.40;;
82950;SDS011;72737;53.332;6.514;2023-09-19T04:06:22;5.28;;;1.50;;
82950;SDS011;72737;53.332;6.514;2023-09-19T04:08:48;4.75;;;1.33;;
82950;SDS011;72737;53.332;6.514;2023-09-19T04:11:14;5.53;;;1.50;;
82950;SDS011;72737;53.332;6.514;2023-09-19T04:13:39;7.30;;;1.63;;
82950;SDS011;72737;53.332;6.514;2023-09-19T04:16:05;6.50;;;1.60;;
82950;SDS011;72737;53.332;6.514;2023-09-19T04:18:31;5.55;;;1.40;;
82950;SDS011;72737;53.332;6.514;2023-09-19T04:20:58;8.02;;;1.50;;
82950;SDS011;72737;53.332;6.514;2023-09-19T04:23:26;4.50;;;1.33;;
82950;SDS011;72737;53.332;6.514;2023-09-19T04:25:51;5.25;;;1.40;;
82950;SDS011;72737;53.332;6.514;2023-09-19T04:28:17;6.43;;;1.50;;
82950;SDS011;72737;53.332;6.514;2023-09-19T04:30:42;4.68;;;1.38;;
82950;SDS011;72737;53.332;6.514;2023-09-19T04:33:08;5.05;;;1.27;;
82950;SDS011;72737;53.332;6.514;2023-09-19T04:35:33;6.50;;;1.55;;
82950;SDS011;72737;53.332;6.514;2023-09-19T04:38:00;5.82;;;1.60;;
82950;SDS011;72737;53.332;6.514;2023-09-19T04:40:25;6.30;;;1.60;;
82950;SDS011;72737;53.332;6.514;2023-09-19T04:42:54;5.22;;;1.33;;
82950;SDS011;72737;53.332;6.514;2023-09-19T04:45:24;5.68;;;1.55;;
82950;SDS011;72737;53.332;6.514;2023-09-19T04:47:51;6.20;;;1.63;;
82950;SDS011;72737;53.332;6.514;2023-09-19T04:50:18;5.47;;;1.35;;
82950;SDS011;72737;53.332;6.514;2023-09-19T04:52:44;4.90;;;1.40;;
82950;SDS011;72737;53.332;6.514;2023-09-19T04:55:13;7.18;;;1.42;;
82950;SDS011;72737;53.332;6.514;2023-09-19T04:57:46;6.50;;;1.30;;
82950;SDS011;72737;53.332;6.514;2023-09-19T05:00:16;5.57;;;1.55;;
82950;SDS011;72737;53.332;6.514;2023-09-19T05:02:43;7.15;;;1.70;;
82950;SDS011;72737;53.332;6.514;2023-09-19T05:07:36;8.18;;;1.60;;
82950;SDS011;72737;53.332;6.514;2023-09-19T05:10:02;8.50;;;1.60;;
82950;SDS011;72737;53.332;6.514;2023-09-19T05:12:34;4.18;;;1.20;;
82950;SDS011;72737;53.332;6.514;2023-09-19T05:15:03;8.27;;;1.40;;
82950;SDS011;72737;53.332;6.514;2023-09-19T05:17:29;5.90;;;1.63;;
82950;SDS011;72737;53.332;6.514;2023-09-19T05:19:55;8.55;;;1.50;;
82950;SDS011;72737;53.332;6.514;2023-09-19T05:22:20;6.38;;;1.48;;
82950;SDS011;72737;53.332;6.514;2023-09-19T05:24:46;7.50;;;1.45;;
82950;SDS011;72737;53.332;6.514;2023-09-19T05:27:13;6.38;;;1.48;;
82950;SDS011;72737;53.332;6.514;2023-09-19T05:29:41;7.22;;;1.42;;
82950;SDS011;72737;53.332;6.514;2023-09-19T05:32:10;7.65;;;1.58;;
82950;SDS011;72737;53.332;6.514;2023-09-19T05:34:36;10.60;;;1.60;;
82950;SDS011;72737;53.332;6.514;2023-09-19T05:37:01;6.88;;;1.30;;
82950;SDS011;72737;53.332;6.514;2023-09-19T05:39:27;5.15;;;1.38;;
82950;SDS011;72737;53.332;6.514;2023-09-19T05:41:53;6.30;;;1.50;;
82950;SDS011;72737;53.332;6.514;2023-09-19T05:44:18;7.63;;;1.50;;
82950;SDS011;72737;53.332;6.514;2023-09-19T05:46:44;5.97;;;1.30;;
82950;SDS011;72737;53.332;6.514;2023-09-19T05:49:13;7.15;;;1.20;;
82950;SDS011;72737;53.332;6.514;2023-09-19T05:51:38;7.45;;;1.90;;
82950;SDS011;72737;53.332;6.514;2023-09-19T05:54:04;7.53;;;1.55;;
82950;SDS011;72737;53.332;6.514;2023-09-19T05:56:30;6.55;;;1.65;;
82950;SDS011;72737;53.332;6.514;2023-09-19T05:58:56;7.82;;;1.70;;
82950;SDS011;72737;53.332;6.514;2023-09-19T06:01:21;9.50;;;1.70;;
82950;SDS011;72737;53.332;6.514;2023-09-19T06:03:47;7.22;;;1.52;;
82950;SDS011;72737;53.332;6.514;2023-09-19T06:06:13;10.30;;;1.70;;
82950;SDS011;72737;53.332;6.514;2023-09-19T06:08:38;7.50;;;1.80;;
82950;SDS011;72737;53.332;6.514;2023-09-19T06:11:04;9.30;;;1.67;;
82950;SDS011;72737;53.332;6.514;2023-09-19T06:13:32;7.90;;;1.50;;
82950;SDS011;72737;53.332;6.514;2023-09-19T06:15:58;6.13;;;1.60;;
82950;SDS011;72737;53.332;6.514;2023-09-19T06:18:28;6.40;;;1.48;;
82950;SDS011;72737;53.332;6.514;2023-09-19T06:20:54;7.65;;;1.55;;
82950;SDS011;72737;53.332;6.514;2023-09-19T06:23:21;7.40;;;1.58;;
82950;SDS011;72737;53.332;6.514;2023-09-19T06:25:47;7.78;;;1.77;;
82950;SDS011;72737;53.332;6.514;2023-09-19T06:28:13;6.75;;;1.50;;
82950;SDS011;72737;53.332;6.514;2023-09-19T06:30:41;6.88;;;1.50;;
82950;SDS011;72737;53.332;6.514;2023-09-19T06:33:07;6.65;;;1.40;;
82950;SDS011;72737;53.332;6.514;2023-09-19T06:35:33;12.55;;;2.17;;
82950;SDS011;72737;53.332;6.514;2023-09-19T06:38:02;8.10;;;1.42;;
82950;SDS011;72737;53.332;6.514;2023-09-19T06:40:28;10.18;;;1.73;;
82950;SDS011;72737;53.332;6.514;2023-09-19T06:42:56;9.73;;;1.88;;
82950;SDS011;72737;53.332;6.514;2023-09-19T06:45:21;14.80;;;2.90;;
82950;SDS011;72737;53.332;6.514;2023-09-19T06:47:48;5.72;;;1.55;;
82950;SDS011;72737;53.332;6.514;2023-09-19T06:50:21;11.82;;;1.80;;
82950;SDS011;72737;53.332;6.514;2023-09-19T06:52:48;7.82;;;1.63;;
82950;SDS011;72737;53.332;6.514;2023-09-19T06:55:18;11.25;;;1.80;;
82950;SDS011;72737;53.332;6.514;2023-09-19T06:57:45;8.65;;;1.77;;
82950;SDS011;72737;53.332;6.514;2023-09-19T07:00:13;8.40;;;1.73;;
82950;SDS011;72737;53.332;6.514;2023-09-19T07:02:56;7.32;;;1.60;;
82950;SDS011;72737;53.332;6.514;2023-09-19T07:08:04;10.70;;;1.95;;
82950;SDS011;72737;53.332;6.514;2023-09-19T07:10:31;8.40;;;1.73;;
82950;SDS011;72737;53.332;6.514;2023-09-19T07:12:59;8.60;;;1.80;;
82950;SDS011;72737;53.332;6.514;2023-09-19T07:15:26;9.80;;;1.75;;
82950;SDS011;72737;53.332;6.514;2023-09-19T07:17:52;9.40;;;1.80;;
82950;SDS011;72737;53.332;6.514;2023-09-19T07:20:19;9.52;;;1.65;;
82950;SDS011;72737;53.332;6.514;2023-09-19T07:22:44;8.38;;;1.80;;
82950;SDS011;72737;53.332;6.514;2023-09-19T07:25:10;7.90;;;1.60;;
82950;SDS011;72737;53.332;6.514;2023-09-19T07:27:35;6.45;;;2.15;;
82950;SDS011;72737;53.332;6.514;2023-09-19T07:30:01;6.80;;;1.52;;
82950;SDS011;72737;53.332;6.514;2023-09-19T07:32:26;7.38;;;1.85;;
82950;SDS011;72737;53.332;6.514;2023-09-19T07:34:52;7.43;;;1.60;;
82950;SDS011;72737;53.332;6.514;2023-09-19T07:37:18;9.88;;;1.60;;
82950;SDS011;72737;53.332;6.514;2023-09-19T07:39:43;9.57;;;1.92;;
82950;SDS011;72737;53.332;6.514;2023-09-19T07:42:09;8.45;;;1.88;;
82950;SDS011;72737;53.332;6.514;2023-09-19T07:44:36;8.57;;;2.00;;
82950;SDS011;72737;53.332;6.514;2023-09-19T07:47:02;11.48;;;1.80;;
82950;SDS011;72737;53.332;6.514;2023-09-19T07:49:28;10.10;;;2.10;;
82950;SDS011;72737;53.332;6.514;2023-09-19T07:51:54;9.18;;;1.80;;
82950;SDS011;72737;53.332;6.514;2023-09-19T07:54:20;8.63;;;1.88;;
82950;SDS011;72737;53.332;6.514;2023-09-19T07:56:46;11.43;;;2.28;;
82950;SDS011;72737;53.332;6.514;2023-09-19T07:59:11;9.93;;;1.90;;
82950;SDS011;72737;53.332;6.514;2023-09-19T08:04:06;9.68;;;1.70;;
82950;SDS011;72737;53.332;6.514;2023-09-19T08:06:32;10.35;;;1.85;;
82950;SDS011;72737;53.332;6.514;2023-09-19T08:08:57;9.88;;;1.95;;
82950;SDS011;72737;53.332;6.514;2023-09-19T08:11:23;8.60;;;1.90;;
82950;SDS011;72737;53.332;6.514;2023-09-19T08:13:49;8.15;;;1.80;;
82950;SDS011;72737;53.332;6.514;2023-09-19T08:16:15;11.02;;;1.98;;
82950;SDS011;72737;53.332;6.514;2023-09-19T08:18:42;8.90;;;2.03;;
82950;SDS011;72737;53.332;6.514;2023-09-19T08:21:13;7.18;;;1.70;;
82950;SDS011;72737;53.332;6.514;2023-09-19T08:23:39;6.68;;;1.80;;
82950;SDS011;72737;53.332;6.514;2023-09-19T08:26:06;9.30;;;1.83;;
82950;SDS011;72737;53.332;6.514;2023-09-19T08:28:36;8.30;;;1.77;;
82950;SDS011;72737;53.332;6.514;2023-09-19T08:31:04;9.55;;;2.10;;
82950;SDS011;72737;53.332;6.514;2023-09-19T08:33:31;10.60;;;2.20;;
82950;SDS011;72737;53.332;6.514;2023-09-19T08:35:58;9.60;;;1.98;;
82950;SDS011;72737;53.332;6.514;2023-09-19T08:38:23;8.43;;;1.98;;
82950;SDS011;72737;53.332;6.514;2023-09-19T08:40:48;7.90;;;1.77;;
82950;SDS011;72737;53.332;6.514;2023-09-19T08:43:14;9.25;;;1.88;;
82950;SDS011;72737;53.332;6.514;2023-09-19T08:45:40;8.65;;;1.90;;
82950;SDS011;72737;53.332;6.514;2023-09-19T08:50:31;7.50;;;2.13;;
82950;SDS011;72737;53.332;6.514;2023-09-19T08:53:01;10.10;;;1.90;;
82950;SDS011;72737;53.332;6.514;2023-09-19T08:55:34;9.35;;;2.20;;
82950;SDS011;72737;53.332;6.514;2023-09-19T08:58:01;10.90;;;2.13;;
82950;SDS011;72737;53.332;6.514;2023-09-19T09:00:29;8.30;;;1.77;;
82950;SDS011;72737;53.332;6.514;2023-09-19T09:05:22;9.15;;;1.85;;
82950;SDS011;72737;53.332;6.514;2023-09-19T09:07:49;7.45;;;1.90;;
82950;SDS011;72737;53.332;6.514;2023-09-19T09:10:19;9.98;;;2.28;;
82950;SDS011;72737;53.332;6.514;2023-09-19T09:12:48;7.63;;;1.90;;
82950;SDS011;72737;53.332;6.514;2023-09-19T09:15:19;14.45;;;2.15;;
82950;SDS011;72737;53.332;6.514;2023-09-19T09:17:47;9.75;;;2.08;;
82950;SDS011;72737;53.332;6.514;2023-09-19T09:20:14;9.38;;;1.63;;
82950;SDS011;72737;53.332;6.514;2023-09-19T09:22:44;9.82;;;2.13;;
82950;SDS011;72737;53.332;6.514;2023-09-19T09:25:15;11.60;;;2.20;;
82950;SDS011;72737;53.332;6.514;2023-09-19T09:27:43;10.27;;;2.17;;
82950;SDS011;72737;53.332;6.514;2023-09-19T09:30:08;14.10;;;2.35;;
82950;SDS011;72737;53.332;6.514;2023-09-19T09:32:34;10.85;;;2.05;;
82950;SDS011;72737;53.332;6.514;2023-09-19T09:35:02;12.05;;;2.10;;
82950;SDS011;72737;53.332;6.514;2023-09-19T09:40:03;10.23;;;1.80;;
82950;SDS011;72737;53.332;6.514;2023-09-19T09:42:41;10.70;;;2.05;;
82950;SDS011;72737;53.332;6.514;2023-09-19T09:48:01;14.52;;;2.35;;
82950;SDS011;72737;53.332;6.514;2023-09-19T09:50:46;13.25;;;2.22;;
82950;SDS011;72737;53.332;6.514;2023-09-19T09:53:25;13.80;;;2.10;;
82950;SDS011;72737;53.332;6.514;2023-09-19T10:01:20;9.18;;;2.20;;
82950;SDS011;72737;53.332;6.514;2023-09-19T10:03:46;12.25;;;2.30;;
82950;SDS011;72737;53.332;6.514;2023-09-19T10:06:17;9.55;;;2.25;;
82950;SDS011;72737;53.332;6.514;2023-09-19T10:09:01;9.27;;;2.17;;
82950;SDS011;72737;53.332;6.514;2023-09-19T10:14:11;9.80;;;2.45;;
82950;SDS011;72737;53.332;6.514;2023-09-19T10:16:42;10.30;;;2.40;;
82950;SDS011;72737;53.332;6.514;2023-09-19T10:19:12;11.93;;;2.50;;
82950;SDS011;72737;53.332;6.514;2023-09-19T10:21:41;8.90;;;2.45;;
82950;SDS011;72737;53.332;6.514;2023-09-19T10:26:34;10.23;;;2.42;;
82950;SDS011;72737;53.332;6.514;2023-09-19T10:29:01;12.52;;;2.38;;
82950;SDS011;72737;53.332;6.514;2023-09-19T10:31:32;13.65;;;2.60;;
82950;SDS011;72737;53.332;6.514;2023-09-19T10:34:02;8.80;;;2.22;;
82950;SDS011;72737;53.332;6.514;2023-09-19T10:36:32;8.65;;;2.58;;
82950;SDS011;72737;53.332;6.514;2023-09-19T10:39:02;12.07;;;2.60;;
82950;SDS011;72737;53.332;6.514;2023-09-19T10:41:31;11.50;;;2.40;;
82950;SDS011;72737;53.332;6.514;2023-09-19T10:44:02;11.32;;;2.60;;
82950;SDS011;72737;53.332;6.514;2023-09-19T10:46:34;13.45;;;2.83;;
82950;SDS011;72737;53.332;6.514;2023-09-19T10:48:59;11.82;;;2.38;;
82950;SDS011;72737;53.332;6.514;2023-09-19T10:51:27;11.43;;;2.60;;
82950;SDS011;72737;53.332;6.514;2023-09-19T10:53:59;9.52;;;2.42;;
82950;SDS011;72737;53.332;6.514;2023-09-19T10:56:35;10.70;;;2.50;;
82950;SDS011;72737;53.332;6.514;2023-09-19T10:59:06;11.63;;;2.42;;
82950;SDS011;72737;53.332;6.514;2023-09-19T11:04:26;11.80;;;2.55;;
82950;SDS011;72737;53.332;6.514;2023-09-19T11:07:00;9.02;;;2.00;;
82950;SDS011;72737;53.332;6.514;2023-09-19T11:14:56;11.82;;;2.33;;
82950;SDS011;72737;53.332;6.514;2023-09-19T11:30:40;10.13;;;2.40;;
82950;SDS011;72737;53.332;6.514;2023-09-19T11:33:20;11.57;;;2.88;;
82950;SDS011;72737;53.332;6.514;2023-09-19T11:36:12;10.65;;;2.53;;
82950;SDS011;72737;53.332;6.514;2023-09-19T11:43:53;17.95;;;2.67;;
82950;SDS011;72737;53.332;6.514;2023-09-19T11:46:34;9.30;;;2.65;;
82950;SDS011;72737;53.332;6.514;2023-09-19T11:49:16;9.65;;;2.67;;
82950;SDS011;72737;53.332;6.514;2023-09-19T11:51:50;12.32;;;2.65;;
82950;SDS011;72737;53.332;6.514;2023-09-19T11:54:19;11.27;;;2.58;;
82950;SDS011;72737;53.332;6.514;2023-09-19T11:56:50;11.63;;;2.63;;
82950;SDS011;72737;53.332;6.514;2023-09-19T11:59:20;11.52;;;2.65;;
82950;SDS011;72737;53.332;6.514;2023-09-19T12:01:50;9.95;;;2.95;;
82950;SDS011;72737;53.332;6.514;2023-09-19T12:04:43;12.20;;;2.45;;
82950;SDS011;72737;53.332;6.514;2023-09-19T12:07:14;11.60;;;2.63;;
82950;SDS011;72737;53.332;6.514;2023-09-19T12:09:44;10.23;;;2.50;;
82950;SDS011;72737;53.332;6.514;2023-09-19T12:12:21;10.00;;;2.65;;
82950;SDS011;72737;53.332;6.514;2023-09-19T12:14:55;11.35;;;2.70;;
82950;SDS011;72737;53.332;6.514;2023-09-19T12:20:04;9.63;;;2.40;;
82950;SDS011;72737;53.332;6.514;2023-09-19T12:22:42;9.95;;;2.65;;
82950;SDS011;72737;53.332;6.514;2023-09-19T12:25:09;9.57;;;2.05;;
82950;SDS011;72737;53.332;6.514;2023-09-19T12:30:21;10.82;;;2.30;;
82950;SDS011;72737;53.332;6.514;2023-09-19T12:32:52;8.68;;;2.35;;
82950;SDS011;72737;53.332;6.514;2023-09-19T12:35:31;7.60;;;2.25;;
82950;SDS011;72737;53.332;6.514;2023-09-19T12:38:00;8.73;;;2.33;;
82950;SDS011;72737;53.332;6.514;2023-09-19T12:40:26;10.07;;;2.33;;
82950;SDS011;72737;53.332;6.514;2023-09-19T12:42:55;7.70;;;1.92;;
82950;SDS011;72737;53.332;6.514;2023-09-19T12:45:21;9.25;;;2.25;;
82950;SDS011;72737;53.332;6.514;2023-09-19T12:53:32;7.63;;;2.22;;
82950;SDS011;72737;53.332;6.514;2023-09-19T12:56:01;10.77;;;2.13;;
82950;SDS011;72737;53.332;6.514;2023-09-19T12:58:27;10.00;;;2.10;;
82950;SDS011;72737;53.332;6.514;2023-09-19T13:00:56;8.27;;;1.90;;
82950;SDS011;72737;53.332;6.514;2023-09-19T13:11:04;9.48;;;2.28;;
82950;SDS011;72737;53.332;6.514;2023-09-19T13:13:43;7.75;;;1.92;;
82950;SDS011;72737;53.332;6.514;2023-09-19T13:16:29;6.95;;;1.70;;
82950;SDS011;72737;53.332;6.514;2023-09-19T13:18:54;7.45;;;1.73;;
82950;SDS011;72737;53.332;6.514;2023-09-19T13:21:32;8.02;;;1.98;;
82950;SDS011;72737;53.332;6.514;2023-09-19T13:24:17;6.43;;;1.65;;
82950;SDS011;72737;53.332;6.514;2023-09-19T13:26:44;7.63;;;1.80;;
82950;SDS011;72737;53.332;6.514;2023-09-19T13:29:10;6.90;;;1.58;;
82950;SDS011;72737;53.332;6.514;2023-09-19T13:31:36;8.38;;;2.05;;
82950;SDS011;72737;53.332;6.514;2023-09-19T13:34:06;8.05;;;2.00;;
82950;SDS011;72737;53.332;6.514;2023-09-19T13:36:31;8.23;;;1.80;;
82950;SDS011;72737;53.332;6.514;2023-09-19T13:38:57;8.98;;;1.75;;
82950;SDS011;72737;53.332;6.514;2023-09-19T13:41:24;6.70;;;1.80;;
82950;SDS011;72737;53.332;6.514;2023-09-19T13:46:15;6.50;;;1.70;;
82950;SDS011;72737;53.332;6.514;2023-09-19T13:48:42;7.93;;;1.73;;
82950;SDS011;72737;53.332;6.514;2023-09-19T13:51:08;8.60;;;1.80;;
82950;SDS011;72737;53.332;6.514;2023-09-19T13:53:33;7.35;;;1.98;;
82950;SDS011;72737;53.332;6.514;2023-09-19T13:55:59;5.85;;;1.60;;
82950;SDS011;72737;53.332;6.514;2023-09-19T13:58:24;6.10;;;1.70;;
82950;SDS011;72737;53.332;6.514;2023-09-19T14:00:51;7.47;;;1.63;;
82950;SDS011;72737;53.332;6.514;2023-09-19T14:03:20;8.35;;;1.60;;
82950;SDS011;72737;53.332;6.514;2023-09-19T14:05:46;7.85;;;1.70;;
82950;SDS011;72737;53.332;6.514;2023-09-19T14:08:12;8.07;;;1.60;;
82950;SDS011;72737;53.332;6.514;2023-09-19T14:10:37;7.50;;;1.70;;
82950;SDS011;72737;53.332;6.514;2023-09-19T14:13:03;5.18;;;1.50;;
82950;SDS011;72737;53.332;6.514;2023-09-19T14:15:29;7.68;;;1.60;;
82950;SDS011;72737;53.332;6.514;2023-09-19T14:17:58;6.55;;;1.45;;
82950;SDS011;72737;53.332;6.514;2023-09-19T14:20:25;6.63;;;1.58;;
82950;SDS011;72737;53.332;6.514;2023-09-19T14:22:52;6.68;;;1.50;;
82950;SDS011;72737;53.332;6.514;2023-09-19T14:25:18;6.13;;;1.40;;
82950;SDS011;72737;53.332;6.514;2023-09-19T14:27:44;6.35;;;1.40;;
82950;SDS011;72737;53.332;6.514;2023-09-19T14:30:10;4.30;;;1.52;;
82950;SDS011;72737;53.332;6.514;2023-09-19T14:32:36;7.70;;;1.38;;
82950;SDS011;72737;53.332;6.514;2023-09-19T14:35:02;6.18;;;1.60;;
82950;SDS011;72737;53.332;6.514;2023-09-19T14:37:27;5.88;;;1.50;;
82950;SDS011;72737;53.332;6.514;2023-09-19T14:39:53;6.97;;;1.70;;
82950;SDS011;72737;53.332;6.514;2023-09-19T14:42:19;8.88;;;1.58;;
82950;SDS011;72737;53.332;6.514;2023-09-19T14:44:45;4.40;;;1.30;;
82950;SDS011;72737;53.332;6.514;2023-09-19T14:47:12;6.25;;;1.50;;
82950;SDS011;72737;53.332;6.514;2023-09-19T14:49:38;6.18;;;1.30;;
82950;SDS011;72737;53.332;6.514;2023-09-19T14:52:04;7.35;;;1.70;;
82950;SDS011;72737;53.332;6.514;2023-09-19T14:54:32;6.35;;;1.40;;
82950;SDS011;72737;53.332;6.514;2023-09-19T14:56:58;6.65;;;1.38;;
82950;SDS011;72737;53.332;6.514;2023-09-19T14:59:31;7.20;;;1.63;;
82950;SDS011;72737;53.332;6.514;2023-09-19T15:01:57;5.68;;;1.50;;
82950;SDS011;72737;53.332;6.514;2023-09-19T15:04:23;6.18;;;1.40;;
82950;SDS011;72737;53.332;6.514;2023-09-19T15:06:49;7.95;;;1.60;;
82950;SDS011;72737;53.332;6.514;2023-09-19T15:09:16;6.20;;;1.80;;
82950;SDS011;72737;53.332;6.514;2023-09-19T15:11:44;5.45;;;1.52;;
82950;SDS011;72737;53.332;6.514;2023-09-19T15:14:09;6.78;;;1.73;;
82950;SDS011;72737;53.332;6.514;2023-09-19T15:16:35;6.82;;;1.52;;
82950;SDS011;72737;53.332;6.514;2023-09-19T15:19:00;6.00;;;1.48;;
82950;SDS011;72737;53.332;6.514;2023-09-19T15:21:26;5.53;;;1.33;;
82950;SDS011;72737;53.332;6.514;2023-09-19T15:23:51;3.83;;;1.35;;
82950;SDS011;72737;53.332;6.514;2023-09-19T15:26:17;6.43;;;1.80;;
82950;SDS011;72737;53.332;6.514;2023-09-19T15:28:47;6.60;;;1.60;;
82950;SDS011;72737;53.332;6.514;2023-09-19T15:31:13;5.25;;;1.23;;
82950;SDS011;72737;53.332;6.514;2023-09-19T15:33:38;7.30;;;1.55;;
82950;SDS011;72737;53.332;6.514;2023-09-19T15:36:05;6.95;;;1.60;;
82950;SDS011;72737;53.332;6.514;2023-09-19T15:41:35;7.72;;;1.50;;
82950;SDS011;72737;53.332;6.514;2023-09-19T15:44:04;5.63;;;1.83;;
82950;SDS011;72737;53.332;6.514;2023-09-19T15:46:35;5.28;;;1.30;;
82950;SDS011;72737;53.332;6.514;2023-09-19T15:49:01;6.30;;;1.30;;
82950;SDS011;72737;53.332;6.514;2023-09-19T15:51:27;5.53;;;1.50;;
82950;SDS011;72737;53.332;6.514;2023-09-19T15:53:53;5.43;;;1.33;;
82950;SDS011;72737;53.332;6.514;2023-09-19T15:56:22;7.72;;;1.63;;
82950;SDS011;72737;53.332;6.514;2023-09-19T15:58:48;6.25;;;1.35;;
82950;SDS011;72737;53.332;6.514;2023-09-19T16:01:19;8.95;;;1.50;;
82950;SDS011;72737;53.332;6.514;2023-09-19T16:06:18;5.15;;;1.30;;
82950;SDS011;72737;53.332;6.514;2023-09-19T16:08:48;5.55;;;1.23;;
82950;SDS011;72737;53.332;6.514;2023-09-19T16:11:16;7.55;;;1.50;;
82950;SDS011;72737;53.332;6.514;2023-09-19T16:13:43;9.25;;;1.60;;
82950;SDS011;72737;53.332;6.514;2023-09-19T16:16:13;5.65;;;1.40;;
82950;SDS011;72737;53.332;6.514;2023-09-19T16:18:54;8.77;;;1.42;;
82950;SDS011;72737;53.332;6.514;2023-09-19T16:21:26;7.00;;;1.50;;
82950;SDS011;72737;53.332;6.514;2023-09-19T16:23:53;5.00;;;1.48;;
82950;SDS011;72737;53.332;6.514;2023-09-19T16:26:19;6.43;;;1.42;;
82950;SDS011;72737;53.332;6.514;2023-09-19T16:28:46;5.97;;;1.60;;
82950;SDS011;72737;53.332;6.514;2023-09-19T16:31:12;5.03;;;1.40;;
82950;SDS011;72737;53.332;6.514;2023-09-19T16:33:39;4.32;;;1.42;;
82950;SDS011;72737;53.332;6.514;2023-09-19T16:36:15;6.68;;;1.60;;
82950;SDS011;72737;53.332;6.514;2023-09-19T16:38:44;6.45;;;1.50;;